createdAt,value
2022-12-06T00:01:32.579Z,98891.78
2022-12-06T00:04:03.114Z,98891.09
2022-12-06T00:06:32.688Z,98883.47
2022-12-06T00:09:00.854Z,98892.31
2022-12-06T00:11:31.213Z,98882.09
2022-12-06T00:14:03.145Z,98881.44
2022-12-06T00:16:32.019Z,98880.47
2022-12-06T00:19:00.053Z,98875.59
2022-12-06T00:21:31.534Z,98881.84
2022-12-06T00:24:04.805Z,98877.63
2022-12-06T00:26:32.249Z,98882.56
2022-12-06T00:29:00.750Z,98874.91
2022-12-06T00:31:30.466Z,98867.38
2022-12-06T00:33:58.692Z,98871.72
2022-12-06T00:36:29.249Z,98869.78
2022-12-06T00:38:59.564Z,98868.88
2022-12-06T00:41:27.321Z,98870.53
2022-12-06T00:43:55.113Z,98867.16
2022-12-06T00:46:25.414Z,98865.94
2022-12-06T00:48:54.140Z,98864.28
2022-12-06T00:51:22.763Z,98861.84
2022-12-06T00:53:50.566Z,98851.59
2022-12-06T00:56:18.813Z,98847.22
2022-12-06T00:58:46.567Z,98846.00
2022-12-06T01:01:22.994Z,98835.75
2022-12-06T01:03:53.133Z,98834.03
2022-12-06T01:06:23.108Z,98826.53
2022-12-06T01:08:50.680Z,98824.25
2022-12-06T01:11:18.645Z,98830.34
2022-12-06T01:13:45.976Z,98826.19
2022-12-06T01:16:17.089Z,98818.84
2022-12-06T01:18:45.808Z,98813.22
2022-12-06T01:21:16.718Z,98809.00
2022-12-06T01:23:45.220Z,98810.41
2022-12-06T01:26:17.147Z,98808.72
2022-12-06T01:28:44.996Z,98809.22
2022-12-06T01:31:13.040Z,98817.16
2022-12-06T01:33:40.852Z,98806.94
2022-12-06T01:36:08.478Z,98806.94
2022-12-06T01:38:36.245Z,98806.53
2022-12-06T01:41:03.611Z,98800.44
2022-12-06T01:43:37.812Z,98806.59
2022-12-06T01:46:28.640Z,98799.09
2022-12-06T01:49:09.940Z,98796.69
2022-12-06T01:51:40.872Z,98792.31
2022-12-06T01:54:11.425Z,98799.69
2022-12-06T01:56:39.876Z,98786.97
2022-12-06T01:59:08.359Z,98791.59
2022-12-06T02:01:37.725Z,98798.44
2022-12-06T02:04:06.843Z,98790.94
2022-12-06T02:06:36.001Z,98784.16
2022-12-06T02:09:06.328Z,98777.31
2022-12-06T02:11:35.594Z,98789.31
2022-12-06T02:14:05.991Z,98786.31
2022-12-06T02:16:54.379Z,98783.75
2022-12-06T02:19:39.818Z,98774.88
2022-12-06T02:22:41.154Z,98783.59
2022-12-06T02:25:17.713Z,98781.44
2022-12-06T02:27:59.678Z,98775.53
2022-12-06T02:31:05.143Z,98774.22
2022-12-06T02:33:57.736Z,98775.44
2022-12-06T02:36:34.746Z,98773.13
2022-12-06T02:39:16.795Z,98769.28
2022-12-06T02:42:05.315Z,98770.38
2022-12-06T02:44:39.699Z,98768.72
2022-12-06T02:47:11.831Z,98767.22
2022-12-06T02:49:49.958Z,98770.50
2022-12-06T02:52:20.301Z,98762.84
2022-12-06T02:54:49.528Z,98774.34
2022-12-06T02:57:19.454Z,98767.59
2022-12-06T02:59:54.939Z,98757.31
2022-12-06T03:02:23.752Z,98757.53
2022-12-06T03:05:09.313Z,98752.31
2022-12-06T03:07:45.877Z,98749.25
2022-12-06T03:10:27.555Z,98746.81
2022-12-06T03:13:22.777Z,98752.63
2022-12-06T03:15:58.695Z,98744.63
2022-12-06T03:18:51.121Z,98740.63
2022-12-06T03:21:54.026Z,98748.13
2022-12-06T03:24:23.071Z,98739.34
2022-12-06T03:26:56.937Z,98740.59
2022-12-06T03:29:26.711Z,98738.75
2022-12-06T03:31:56.365Z,98742.75
2022-12-06T03:34:31.937Z,98736.38
2022-12-06T03:37:00.918Z,98731.88
2022-12-06T03:39:37.866Z,98724.03
2022-12-06T03:42:05.609Z,98718.00
2022-12-06T03:44:34.405Z,98724.09
2022-12-06T03:47:16.004Z,98712.13
2022-12-06T03:49:48.290Z,98724.69
2022-12-06T03:52:15.649Z,98728.44
2022-12-06T03:54:43.003Z,98728.00
2022-12-06T03:57:10.750Z,98729.84
2022-12-06T03:59:38.083Z,98721.56
2022-12-06T04:02:05.945Z,98723.19
2022-12-06T04:04:33.719Z,98715.06
2022-12-06T04:07:01.199Z,98716.63
2022-12-06T04:09:47.291Z,98722.81
2022-12-06T04:12:33.423Z,98724.56
2022-12-06T04:15:00.906Z,98714.66
2022-12-06T04:17:46.738Z,98716.69
2022-12-06T04:20:14.040Z,98718.63
2022-12-06T04:23:00.635Z,98723.16
2022-12-06T04:25:28.090Z,98721.78
2022-12-06T04:28:14.807Z,98720.03
2022-12-06T04:31:00.647Z,98728.44
2022-12-06T04:33:46.778Z,98733.53
2022-12-06T04:36:32.640Z,98734.19
2022-12-06T04:39:00.153Z,98728.16
2022-12-06T04:41:46.213Z,98728.63
2022-12-06T04:44:13.576Z,98731.84
2022-12-06T04:46:41.017Z,98735.34
2022-12-06T04:49:08.433Z,98739.53
2022-12-06T04:51:35.739Z,98739.00
2022-12-06T04:54:03.855Z,98754.94
2022-12-06T04:56:31.443Z,98742.81
2022-12-06T04:58:59.893Z,98736.00
2022-12-06T05:01:27.251Z,98735.03
2022-12-06T05:03:54.581Z,98736.75
2022-12-06T05:06:21.981Z,98744.13
2022-12-06T05:08:49.351Z,98745.66
2022-12-06T05:11:16.636Z,98744.75
2022-12-06T05:13:44.035Z,98744.59
2022-12-06T05:16:11.740Z,98745.19
2022-12-06T05:18:39.403Z,98743.94
2022-12-06T05:21:15.959Z,98740.38
2022-12-06T05:23:43.301Z,98732.56
2022-12-06T05:26:14.543Z,98743.44
2022-12-06T05:28:42.146Z,98737.75
2022-12-06T05:31:10.094Z,98737.19
2022-12-06T05:33:38.358Z,98735.97
2022-12-06T05:36:11.744Z,98735.53
2022-12-06T05:38:39.185Z,98736.66
2022-12-06T05:41:07.602Z,98732.84
2022-12-06T05:43:35.305Z,98725.59
2022-12-06T05:46:03.129Z,98724.19
2022-12-06T05:48:30.597Z,98726.47
2022-12-06T05:50:58.076Z,98730.13
2022-12-06T05:53:25.391Z,98728.38
2022-12-06T05:55:52.689Z,98715.28
2022-12-06T05:58:20.430Z,98718.03
2022-12-06T06:00:49.549Z,98708.22
2022-12-06T06:03:17.936Z,98710.09
2022-12-06T06:05:50.031Z,98713.38
2022-12-06T06:08:18.311Z,98710.88
2022-12-06T06:10:45.825Z,98714.66
2022-12-06T06:13:14.984Z,98704.34
2022-12-06T06:15:44.082Z,98708.44
2022-12-06T06:18:11.485Z,98699.16
2022-12-06T06:20:38.761Z,98697.81
2022-12-06T06:23:06.141Z,98698.34
2022-12-06T06:25:33.568Z,98697.84
2022-12-06T06:28:00.887Z,98707.19
2022-12-06T06:30:28.347Z,98699.63
2022-12-06T06:32:55.840Z,98702.88
2022-12-06T06:35:23.249Z,98693.00
2022-12-06T06:37:50.700Z,98697.53
2022-12-06T06:40:18.091Z,98687.19
2022-12-06T06:42:46.284Z,98694.00
2022-12-06T06:45:13.925Z,98694.38
2022-12-06T06:47:41.875Z,98688.53
2022-12-06T06:50:09.844Z,98693.25
2022-12-06T06:52:37.364Z,98689.06
2022-12-06T06:55:05.025Z,98692.50
2022-12-06T06:57:32.585Z,98695.56
2022-12-06T07:00:00.243Z,98707.75
2022-12-06T07:02:27.892Z,98692.78
2022-12-06T07:04:55.400Z,98675.97
2022-12-06T07:07:22.911Z,98683.00
2022-12-06T07:09:50.307Z,98680.00
2022-12-06T07:12:18.106Z,98679.06
2022-12-06T07:14:45.530Z,98668.38
2022-12-06T07:17:12.904Z,98679.13
2022-12-06T07:19:40.803Z,98679.81
2022-12-06T07:22:08.131Z,98672.19
2022-12-06T07:24:41.276Z,98662.91
2022-12-06T07:27:09.656Z,98674.56
2022-12-06T07:29:38.717Z,98670.97
2022-12-06T07:32:06.362Z,98672.97
2022-12-06T07:34:33.683Z,98664.38
2022-12-06T07:37:01.827Z,98662.56
2022-12-06T07:39:29.203Z,98658.75
2022-12-06T07:42:15.229Z,98622.75
2022-12-06T07:45:02.993Z,98615.34
2022-12-06T07:47:39.228Z,98646.13
2022-12-06T07:50:17.340Z,98660.75
2022-12-06T07:52:46.611Z,98653.97
2022-12-06T07:55:14.988Z,98650.81
2022-12-06T07:57:44.246Z,98656.41
2022-12-06T08:00:14.457Z,98655.25
2022-12-06T08:02:42.417Z,98650.44
2022-12-06T08:05:10.280Z,98638.81
2022-12-06T08:07:38.379Z,98638.03
2022-12-06T08:10:06.630Z,98639.63
2022-12-06T08:12:34.095Z,98647.75
2022-12-06T08:15:01.670Z,98655.13
2022-12-06T08:17:30.483Z,98652.25
2022-12-06T08:20:00.125Z,98654.84
2022-12-06T08:22:30.854Z,98655.44
2022-12-06T08:24:58.988Z,98647.53
2022-12-06T08:27:27.041Z,98650.38
2022-12-06T08:29:54.825Z,98649.34
2022-12-06T08:32:22.297Z,98646.56
2022-12-06T08:34:50.325Z,98641.69
2022-12-06T08:37:18.036Z,98646.94
2022-12-06T08:39:45.316Z,98662.34
2022-12-06T08:42:12.705Z,98656.84
2022-12-06T08:44:40.092Z,98658.94
2022-12-06T08:47:09.756Z,98654.22
2022-12-06T08:49:37.911Z,98656.06
2022-12-06T08:52:05.917Z,98654.78
2022-12-06T08:54:35.161Z,98649.28
2022-12-06T08:57:04.813Z,98663.38
2022-12-06T08:59:32.948Z,98666.50
2022-12-06T09:02:00.481Z,98663.09
2022-12-06T09:04:28.475Z,98658.34
2022-12-06T09:06:56.755Z,98650.03
2022-12-06T09:09:24.077Z,98632.78
2022-12-06T09:11:51.523Z,98625.44
2022-12-06T09:14:22.038Z,98621.06
2022-12-06T09:16:50.770Z,98603.91
2022-12-06T09:19:18.896Z,98580.59
2022-12-06T09:21:46.632Z,98586.38
2022-12-06T09:24:16.168Z,98585.50
2022-12-06T09:26:43.668Z,98571.63
2022-12-06T09:29:11.690Z,98584.25
2022-12-06T09:31:40.445Z,98578.00
2022-12-06T09:34:09.052Z,98592.09
2022-12-06T09:36:43.742Z,98587.78
2022-12-06T09:39:18.634Z,98587.63
2022-12-06T09:41:58.292Z,98602.88
2022-12-06T09:44:44.498Z,98594.81
2022-12-06T09:47:30.800Z,98586.94
2022-12-06T09:50:05.458Z,98575.75
2022-12-06T09:53:02.251Z,98555.75
2022-12-06T09:55:43.041Z,98570.75
2022-12-06T09:58:19.212Z,98585.06
2022-12-06T10:00:54.437Z,98602.31
2022-12-06T10:03:39.506Z,98612.31
2022-12-06T10:06:14.588Z,98602.19
2022-12-06T10:09:00.534Z,98609.28
2022-12-06T10:11:57.327Z,98605.84
2022-12-06T10:14:51.921Z,98624.13
2022-12-06T10:17:34.152Z,98634.72
2022-12-06T10:20:19.421Z,98644.22
2022-12-06T10:22:52.720Z,98646.56
2022-12-06T10:25:40.289Z,98636.63
2022-12-06T10:28:14.531Z,98641.38
2022-12-06T10:30:52.003Z,98647.69
2022-12-06T10:33:40.937Z,98647.03
2022-12-06T10:36:12.970Z,98642.38
2022-12-06T10:39:00.175Z,98626.63
2022-12-06T10:41:44.900Z,98605.53
2022-12-06T10:44:21.297Z,98616.44
2022-12-06T10:47:05.339Z,98634.94
2022-12-06T10:49:53.651Z,98639.50
2022-12-06T10:52:29.736Z,98646.00
2022-12-06T10:55:02.696Z,98645.59
2022-12-06T10:57:56.656Z,98647.44
2022-12-06T11:00:30.583Z,98650.00
2022-12-06T11:03:02.909Z,98669.47
2022-12-06T11:06:01.719Z,98662.91
2022-12-06T11:08:35.275Z,98672.03
2022-12-06T11:11:05.611Z,98664.84
2022-12-06T11:13:38.778Z,98668.59
2022-12-06T11:16:26.980Z,98665.47
2022-12-06T11:19:00.605Z,98661.06
2022-12-06T11:21:44.745Z,98672.50
2022-12-06T11:24:26.663Z,98678.84
2022-12-06T11:27:05.606Z,98675.56
2022-12-06T11:29:33.005Z,98675.50
2022-12-06T11:32:07.593Z,98663.09
2022-12-06T11:34:44.775Z,98663.19
2022-12-06T11:37:19.262Z,98666.16
2022-12-06T11:39:49.076Z,98670.53
2022-12-06T11:42:23.419Z,98669.28
2022-12-06T11:45:21.767Z,98675.06
2022-12-06T11:47:49.112Z,98667.31
2022-12-06T11:50:19.928Z,98665.00
2022-12-06T11:53:11.818Z,98666.59
2022-12-06T11:55:45.756Z,98670.41
2022-12-06T11:58:25.217Z,98675.97
2022-12-06T12:01:10.796Z,98679.50
2022-12-06T12:03:40.537Z,98680.47
2022-12-06T12:06:26.868Z,98681.66
2022-12-06T12:09:02.960Z,98681.47
2022-12-06T12:11:32.972Z,98682.19
2022-12-06T12:14:07.594Z,98681.66
2022-12-06T12:16:42.811Z,98684.47
2022-12-06T12:19:46.515Z,98695.94
2022-12-06T12:22:25.313Z,98696.34
2022-12-06T12:25:20.583Z,98696.78
2022-12-06T12:27:53.771Z,98700.72
2022-12-06T12:30:40.309Z,98700.84
2022-12-06T12:33:07.581Z,98707.44
2022-12-06T12:35:39.134Z,98703.03
2022-12-06T12:38:28.566Z,98694.06
2022-12-06T12:41:12.606Z,98697.63
2022-12-06T12:43:40.042Z,98701.25
2022-12-06T12:46:10.365Z,98700.94
2022-12-06T12:48:39.498Z,98705.16
2022-12-06T12:51:21.587Z,98697.34
2022-12-06T12:53:55.025Z,98694.75
2022-12-06T12:56:23.184Z,98693.16
2022-12-06T12:58:55.150Z,98697.69
2022-12-06T13:01:25.483Z,98693.00
2022-12-06T13:04:03.079Z,98685.69
2022-12-06T13:06:52.809Z,98693.81
2022-12-06T13:09:50.242Z,98695.47
2022-12-06T13:12:40.436Z,98699.19
2022-12-06T13:15:29.334Z,98701.50
2022-12-06T13:18:04.436Z,98693.34
2022-12-06T13:20:34.503Z,98695.44
2022-12-06T13:23:12.343Z,98693.81
2022-12-06T13:25:39.879Z,98696.56
2022-12-06T13:28:17.288Z,98698.53
2022-12-06T13:30:46.644Z,98701.44
2022-12-06T13:33:24.240Z,98700.63
2022-12-06T13:36:03.499Z,98697.53
2022-12-06T13:38:33.724Z,98706.16
2022-12-06T13:41:11.747Z,98696.09
2022-12-06T13:43:40.180Z,98702.75
2022-12-06T13:46:07.624Z,98704.53
2022-12-06T13:48:37.889Z,98713.97
2022-12-06T13:51:11.125Z,98715.94
2022-12-06T13:54:17.031Z,98716.63
2022-12-06T13:56:44.655Z,98718.09
2022-12-06T13:59:15.154Z,98719.38
2022-12-06T14:01:48.751Z,98721.19
2022-12-06T14:07:00.236Z,98722.00
2022-12-06T14:09:38.034Z,98715.31
2022-12-06T14:12:17.870Z,98720.06
2022-12-06T14:15:05.057Z,98721.53
2022-12-06T14:20:30.335Z,98722.16
2022-12-06T14:22:57.807Z,98716.63
2022-12-06T14:25:28.523Z,98713.72
2022-12-06T14:28:22.044Z,98714.19
2022-12-06T14:30:51.150Z,98715.97
2022-12-06T14:33:22.370Z,98720.84
2022-12-06T14:35:52.452Z,98713.19
2022-12-06T14:38:30.876Z,98710.91
2022-12-06T14:41:17.331Z,98710.91
2022-12-06T14:43:47.639Z,98708.97
2022-12-06T14:46:17.631Z,98706.31
2022-12-06T14:49:04.463Z,98700.66
2022-12-06T14:51:42.566Z,98698.50
2022-12-06T14:54:32.007Z,98689.09
2022-12-06T14:57:00.145Z,98683.06
2022-12-06T15:00:11.021Z,98682.41
2022-12-06T15:02:27.735Z,98689.09
2022-12-06T15:04:55.922Z,98683.06
2022-12-06T15:07:36.818Z,98677.19
2022-12-06T15:10:16.399Z,98673.94
2022-12-06T15:12:56.031Z,98668.91
2022-12-06T15:15:41.528Z,98672.31
2022-12-06T15:18:22.982Z,98683.53
2022-12-06T15:20:51.213Z,98683.22
2022-12-06T15:23:40.895Z,98682.56
2022-12-06T15:26:11.991Z,98685.66
2022-12-06T15:28:40.687Z,98678.22
2022-12-06T15:31:19.507Z,98681.13
2022-12-06T15:33:47.638Z,98682.09
2022-12-06T15:36:23.678Z,98682.25
2022-12-06T15:38:51.267Z,98686.31
2022-12-06T15:41:20.960Z,98690.03
2022-12-06T15:43:49.609Z,98687.25
2022-12-06T15:46:24.101Z,98683.22
2022-12-06T15:48:53.000Z,98682.41
2022-12-06T15:51:24.893Z,98683.72
2022-12-06T15:53:55.361Z,98672.97
2022-12-06T15:56:25.144Z,98681.59
2022-12-06T15:58:52.577Z,98682.22
2022-12-06T16:01:23.320Z,98683.84
2022-12-06T16:03:53.234Z,98697.66
2022-12-06T16:06:23.002Z,98694.72
2022-12-06T16:08:50.475Z,98710.31
2022-12-06T16:11:21.517Z,98718.75
2022-12-06T16:13:50.511Z,98707.03
2022-12-06T16:16:20.369Z,98715.81
2022-12-06T16:18:48.631Z,98711.59
2022-12-06T16:21:31.023Z,98716.28
2022-12-06T16:24:16.495Z,98711.25
2022-12-06T16:26:45.103Z,98709.63
2022-12-06T16:29:20.532Z,98710.56
2022-12-06T16:31:51.024Z,98714.00
2022-12-06T16:34:19.181Z,98713.50
2022-12-06T16:36:54.187Z,98721.59
2022-12-06T16:39:21.833Z,98726.81
2022-12-06T16:41:49.277Z,98730.22
2022-12-06T16:44:16.664Z,98737.88
2022-12-06T16:46:44.501Z,98742.75
2022-12-06T16:52:11.384Z,98739.19
2022-12-06T16:54:42.264Z,98730.56
2022-12-06T16:57:14.162Z,98735.13
2022-12-06T16:59:42.667Z,98724.38
2022-12-06T17:02:26.611Z,98712.84
2022-12-06T17:04:55.314Z,98710.72
2022-12-06T17:07:23.109Z,98717.38
2022-12-06T17:09:50.702Z,98711.38
2022-12-06T17:12:19.226Z,98710.38
2022-12-06T17:14:46.684Z,98713.63
2022-12-06T17:17:16.388Z,98722.28
2022-12-06T17:19:44.342Z,98721.81
2022-12-06T17:22:15.612Z,98714.84
2022-12-06T17:24:42.905Z,98709.81
2022-12-06T17:27:10.289Z,98707.25
2022-12-06T17:29:37.778Z,98697.84
2022-12-06T17:32:05.542Z,98709.19
2022-12-06T17:34:33.237Z,98722.00
2022-12-06T17:37:00.606Z,98730.44
2022-12-06T17:39:28.012Z,98729.00
2022-12-06T17:42:14.342Z,98715.31
2022-12-06T17:44:41.684Z,98720.94
2022-12-06T17:47:09.086Z,98726.25
2022-12-06T17:49:38.281Z,98737.41
2022-12-06T17:52:06.469Z,98742.63
2022-12-06T17:54:33.848Z,98749.81
2022-12-06T17:57:01.306Z,98750.47
2022-12-06T17:59:31.823Z,98749.22
2022-12-06T18:02:16.767Z,98740.06
2022-12-06T18:04:46.169Z,98745.44
2022-12-06T18:07:14.318Z,98748.38
2022-12-06T18:09:41.722Z,98737.81
2022-12-06T18:12:10.642Z,98738.91
2022-12-06T18:14:37.953Z,98743.59
2022-12-06T18:17:05.631Z,98748.09
2022-12-06T18:19:33.541Z,98742.19
2022-12-06T18:22:01.030Z,98740.91
2022-12-06T18:24:35.106Z,98747.38
2022-12-06T18:27:04.879Z,98753.34
2022-12-06T18:29:32.533Z,98752.00
2022-12-06T18:32:00.125Z,98749.88
2022-12-06T18:34:27.592Z,98749.81
2022-12-06T18:36:56.181Z,98759.16
2022-12-06T18:39:26.534Z,98752.41
2022-12-06T18:42:01.040Z,98742.03
2022-12-06T18:44:28.397Z,98744.81
2022-12-06T18:46:55.691Z,98737.84
2022-12-06T18:49:23.039Z,98745.28
2022-12-06T18:51:50.471Z,98741.09
2022-12-06T18:54:17.867Z,98738.69
2022-12-06T18:56:45.263Z,98743.75
2022-12-06T18:59:12.736Z,98738.69
2022-12-06T19:01:41.322Z,98732.06
2022-12-06T19:04:13.273Z,98732.28
2022-12-06T19:06:40.957Z,98739.59
2022-12-06T19:09:10.888Z,98756.84
2022-12-06T19:11:46.594Z,98749.41
2022-12-06T19:14:15.724Z,98742.81
2022-12-06T19:16:48.153Z,98745.13
2022-12-06T19:19:21.707Z,98742.97
2022-12-06T19:21:50.834Z,98748.34
2022-12-06T19:24:23.894Z,98753.47
2022-12-06T19:26:52.353Z,98759.25
2022-12-06T19:29:19.946Z,98759.53
2022-12-06T19:31:47.856Z,98753.69
2022-12-06T19:34:21.454Z,98748.84
2022-12-06T19:36:50.484Z,98749.25
2022-12-06T19:39:18.677Z,98752.53
2022-12-06T19:42:05.176Z,98744.63
2022-12-06T19:44:32.593Z,98741.22
2022-12-06T19:47:00.063Z,98743.81
2022-12-06T19:49:29.208Z,98749.34
2022-12-06T19:51:56.591Z,98737.84
2022-12-06T19:54:31.894Z,98736.50
2022-12-06T19:57:00.898Z,98739.56
2022-12-06T19:59:31.583Z,98735.34
2022-12-06T20:01:58.992Z,98738.09
2022-12-06T20:04:29.943Z,98739.28
2022-12-06T20:06:57.872Z,98740.38
2022-12-06T20:09:29.250Z,98740.69
2022-12-06T20:12:04.738Z,98730.31
2022-12-06T20:14:46.714Z,98717.03
2022-12-06T20:17:24.683Z,98714.91
2022-12-06T20:19:52.087Z,98722.03
2022-12-06T20:22:22.744Z,98710.13
2022-12-06T20:24:50.823Z,98720.94
2022-12-06T20:27:39.047Z,98716.75
2022-12-06T20:30:07.764Z,98714.81
2022-12-06T20:32:35.166Z,98725.22
2022-12-06T20:35:03.841Z,98724.97
2022-12-06T20:37:31.408Z,98724.19
2022-12-06T20:39:59.676Z,98717.88
2022-12-06T20:42:32.573Z,98711.44
2022-12-06T20:45:00.390Z,98711.28
2022-12-06T20:47:28.006Z,98711.34
2022-12-06T20:49:55.354Z,98708.34
2022-12-06T20:52:23.658Z,98710.97
2022-12-06T20:54:51.704Z,98702.94
2022-12-06T20:57:19.631Z,98697.81
2022-12-06T20:59:46.903Z,98693.94
2022-12-06T21:02:14.545Z,98690.88
2022-12-06T21:04:42.233Z,98692.09
2022-12-06T21:07:09.842Z,98703.34
2022-12-06T21:09:37.237Z,98703.09
2022-12-06T21:12:04.670Z,98709.97
2022-12-06T21:14:33.531Z,98704.34
2022-12-06T21:17:01.709Z,98704.66
2022-12-06T21:19:29.610Z,98710.59
2022-12-06T21:21:59.505Z,98706.84
2022-12-06T21:24:26.964Z,98701.16
2022-12-06T21:26:54.317Z,98691.41
2022-12-06T21:29:30.364Z,98691.28
2022-12-06T21:32:01.834Z,98691.19
2022-12-06T21:34:32.878Z,98699.34
2022-12-06T21:37:00.753Z,98706.03
2022-12-06T21:39:28.220Z,98705.69
2022-12-06T21:41:55.893Z,98700.81
2022-12-06T21:44:23.920Z,98707.56
2022-12-06T21:46:52.546Z,98696.75
2022-12-06T21:49:20.096Z,98691.25
2022-12-06T21:51:47.554Z,98695.16
2022-12-06T21:54:15.000Z,98683.13
2022-12-06T21:56:42.443Z,98690.09
2022-12-06T21:59:09.791Z,98686.88
2022-12-06T22:01:37.756Z,98688.50
2022-12-06T22:04:05.337Z,98696.91
2022-12-06T22:06:36.741Z,98692.41
2022-12-06T22:09:06.168Z,98694.03
2022-12-06T22:11:34.518Z,98689.00
2022-12-06T22:14:02.470Z,98683.91
2022-12-06T22:16:30.274Z,98687.47
2022-12-06T22:18:58.443Z,98685.47
2022-12-06T22:21:28.781Z,98683.03
2022-12-06T22:24:00.403Z,98684.75
2022-12-06T22:26:30.818Z,98679.13
2022-12-06T22:28:59.684Z,98683.25
2022-12-06T22:31:30.325Z,98674.88
2022-12-06T22:33:58.412Z,98678.97
2022-12-06T22:36:26.669Z,98679.44
2022-12-06T22:38:58.882Z,98679.78
2022-12-06T22:41:27.226Z,98671.41
2022-12-06T22:44:00.571Z,98672.75
2022-12-06T22:46:29.298Z,98670.81
2022-12-06T22:48:57.520Z,98669.66
2022-12-06T22:51:27.588Z,98666.09
2022-12-06T22:53:57.405Z,98664.13
2022-12-06T22:56:25.659Z,98669.06
2022-12-06T22:58:57.813Z,98662.25
2022-12-06T23:01:29.731Z,98665.72
2022-12-06T23:04:00.144Z,98665.00
2022-12-06T23:06:27.945Z,98666.84
2022-12-06T23:08:55.674Z,98668.16
2022-12-06T23:11:31.343Z,98664.91
2022-12-06T23:13:58.978Z,98660.63
2022-12-06T23:16:29.063Z,98654.63
2022-12-06T23:18:58.717Z,98641.53
2022-12-06T23:21:28.725Z,98653.03
2022-12-06T23:24:02.105Z,98648.72
2022-12-06T23:26:35.643Z,98645.69
2022-12-06T23:29:03.934Z,98645.38
2022-12-06T23:31:34.496Z,98638.81
2022-12-06T23:34:13.006Z,98640.09
2022-12-06T23:36:40.407Z,98633.22
2022-12-06T23:39:08.361Z,98632.44
2022-12-06T23:41:36.601Z,98632.25
2022-12-06T23:44:05.497Z,98626.06
2022-12-06T23:46:37.260Z,98642.28
2022-12-06T23:49:07.130Z,98624.69
2022-12-06T23:51:37.175Z,98618.53
2022-12-06T23:54:07.836Z,98628.66
2022-12-06T23:56:37.982Z,98639.03
2022-12-06T23:59:07.514Z,98626.22
